Sevilleta

2020-09-27 19:00:00

  • imperial
Date Time Air Temperature Relative Humidity Wind Speed Wind Dir. Precipitation Solar Radiation Soil Temperature Soil Temperature Soil Temperature Soil Temperature Soil Temperature
5cm 10cm 20cm 50cm 100cm
US/Mountain F % MPH deg in MJ/m^2 F F F F F
max min avg max min max avg avg
2020-09-26 22:00:00 70.3 68.5 69.4 17.0 16.0 5.7 3.8 233.0 0.00 0.0000000 73.9 79.2 76.8 76.5 75.6
2020-09-26 23:00:00 70.3 60.3 62.6 24.0 16.0 6.8 4.2 130.0 0.00 0.0000000 71.1 76.8 76.5 76.5 75.6
2020-09-27 01:00:00 70.0 65.5 68.4 21.0 20.0 10.5 5.2 310.0 0.00 0.0000000 68.4 73.9 75.6 76.6 75.6
2020-09-27 02:00:00 70.3 67.6 69.6 25.0 22.0 16.8 5.7 349.0 0.00 0.0000000 68.0 73.4 75.6 76.8 75.6
2020-09-27 03:00:00 69.8 66.0 68.4 27.0 24.0 8.4 3.4 317.0 0.00 0.0000000 67.1 72.3 74.7 76.8 75.6
2020-09-27 04:00:00 68.9 66.6 67.6 27.0 25.0 12.1 3.3 304.0 0.00 0.0000000 66.0 71.8 74.7 76.8 75.6
2020-09-27 05:00:00 68.9 67.3 68.0 26.0 24.0 13.5 4.7 355.0 0.00 0.0000000 65.1 70.7 73.9 76.8 75.6
2020-09-27 06:00:00 69.4 56.1 63.0 36.0 23.0 10.4 4.2 123.0 0.00 0.0030240 64.8 70.3 73.9 76.8 75.6
2020-09-27 07:00:00 60.8 52.5 55.6 41.0 32.0 7.1 4.6 152.0 0.00 0.2212200 63.5 69.3 73.0 76.8 75.6
2020-09-27 08:00:00 71.6 62.4 67.6 31.0 22.0 13.3 6.6 219.0 0.00 1.0263600 64.6 68.9 72.7 76.8 75.6
2020-09-27 09:00:00 76.5 71.6 74.8 22.0 17.0 15.4 7.1 276.0 0.00 1.7308800 68.5 69.6 72.3 76.8 75.6
2020-09-27 10:00:00 81.0 78.1 79.3 15.0 13.0 22.4 14.1 299.0 0.00 2.3191200 72.9 70.7 72.3 76.8 75.6
2020-09-27 11:00:00 83.5 81.0 82.2 13.0 11.0 21.7 13.5 296.0 0.00 2.7684000 83.7 74.7 71.8 76.8 75.4
2020-09-27 12:00:00 86.4 83.8 84.9 11.0 9.0 22.1 11.8 294.0 0.00 2.9880000 90.3 77.7 71.8 76.8 75.7
2020-09-27 13:00:00 87.8 86.4 87.4 9.0 9.0 23.4 12.2 293.0 0.00 2.8908000 96.6 82.4 72.3 76.6 75.6
2020-09-27 14:00:00 89.4 88.2 88.7 8.0 8.0 23.2 12.0 313.0 0.00 2.6107200 98.6 85.1 72.7 76.6 75.6
2020-09-27 15:00:00 90.3 88.9 89.8 8.0 8.0 23.4 12.6 300.0 0.00 2.1207600 98.6 87.3 73.4 76.5 75.6
2020-09-27 16:00:00 90.7 89.4 90.1 9.0 8.0 20.1 11.6 324.0 0.00 1.5044400 96.4 88.0 74.3 76.5 75.4
2020-09-27 17:00:00 90.1 88.0 88.9 10.0 9.0 18.6 12.3 335.0 0.00 0.7862400 91.0 87.3 75.0 76.5 75.6
2020-09-27 18:00:00 87.3 82.6 85.3 12.0 10.0 17.0 7.0 327.0 0.00 0.1653120 87.6 86.2 75.6 76.5 75.6
2020-09-27 19:00:00 82.6 73.6 77.4 15.0 12.0 6.0 2.2 320.0 0.00 0.0012960 81.3 84.0 75.9 76.3 75.6

Data is presented as is, with no certification of correctness. DO NOT USE IN LEGAL PROCEEDINGS.